Time;durP1;ratioP1;P1;durP2;ratioP2;P2;SDS_P1;SDS_P2;PMS_P1;PMS_P2;Temp;Humidity;BMP_temperature;BMP_pressure;BME280_temperature;BME280_humidity;BME280_pressure;Samples;Min_cycle;Max_cycle;Signal;HPM_P1;HPM_P2
2023/05/01 00:00:08;;;;;;;12.98;7.07;;;358.90;2329.60;;;;;;5024547;28;20026;-72
2023/05/01 00:02:34;;;;;;;10.90;6.15;;;358.80;2329.60;;;;;;5031234;28;20107;-73
2023/05/01 00:04:59;;;;;;;9.80;5.68;;;358.80;2329.60;;;;;;5025871;28;20084;-72
2023/05/01 00:07:28;;;;;;;13.10;7.10;;;358.80;2329.60;;;;;;5022959;28;20017;-73
2023/05/01 00:09:53;;;;;;;11.43;5.85;;;358.90;2329.60;;;;;;5026890;28;20112;-73
2023/05/01 00:12:19;;;;;;;10.05;5.72;;;358.90;2329.60;;;;;;5023291;28;20587;-72
2023/05/01 00:14:45;;;;;;;10.02;5.97;;;358.80;2329.60;;;;;;5028201;28;20026;-72
2023/05/01 00:17:10;;;;;;;9.70;6.15;;;358.80;2329.60;;;;;;5024790;28;20041;-72
2023/05/01 00:19:36;;;;;;;10.43;6.70;;;358.80;2329.60;;;;;;5030185;28;20400;-73
2023/05/01 00:22:02;;;;;;;9.15;6.18;;;358.80;2329.60;;;;;;5029756;28;20372;-72
2023/05/01 00:24:28;;;;;;;11.60;6.28;;;358.80;2329.60;;;;;;5021492;28;20376;-72
2023/05/01 00:26:53;;;;;;;9.68;6.32;;;358.90;2329.60;;;;;;5031063;28;20393;-73
2023/05/01 00:29:19;;;;;;;11.43;6.70;;;359.00;2329.60;;;;;;5030354;28;20087;-73
2023/05/01 00:31:46;;;;;;;9.40;6.00;;;359.00;2329.60;;;;;;5030017;28;20424;-73
2023/05/01 00:34:12;;;;;;;10.20;6.35;;;358.90;2329.60;;;;;;5021509;28;20033;-73
2023/05/01 00:36:37;;;;;;;20.40;6.97;;;358.80;2329.60;;;;;;5031218;28;20036;-73
2023/05/01 00:39:03;;;;;;;11.32;6.72;;;358.80;2329.60;;;;;;5027419;28;20022;-73
2023/05/01 00:41:29;;;;;;;14.07;6.43;;;358.80;2329.60;;;;;;5026870;28;20028;-72
2023/05/01 00:43:55;;;;;;;11.65;6.43;;;358.80;2329.60;;;;;;5021281;28;20476;-73
2023/05/01 00:46:21;;;;;;;9.43;7.47;;;358.70;2329.60;;;;;;5032038;28;20021;-73
2023/05/01 00:48:47;;;;;;;10.85;6.93;;;358.70;2329.60;;;;;;5027197;28;20022;-74
2023/05/01 00:51:12;;;;;;;9.77;6.88;;;358.60;2329.60;;;;;;5027858;28;20497;-72
2023/05/01 00:53:42;;;;;;;10.73;7.13;;;358.60;2329.60;;;;;;5023228;28;20108;-73
2023/05/01 00:56:09;;;;;;;12.95;7.30;;;358.70;2329.60;;;;;;5028167;28;20038;-73
2023/05/01 00:58:35;;;;;;;15.95;6.78;;;358.70;2329.60;;;;;;5025748;28;20099;-73
2023/05/01 01:01:01;;;;;;;15.45;7.50;;;358.80;2329.60;;;;;;5031149;28;20037;-72
2023/05/01 01:03:27;;;;;;;10.02;7.15;;;358.80;2329.60;;;;;;5027287;28;20029;-73
2023/05/01 01:05:59;;;;;;;11.50;7.63;;;358.80;2329.60;;;;;;5027854;28;20026;-73
2023/05/01 01:08:32;;;;;;;13.77;7.28;;;358.80;2329.60;;;;;;5033366;28;20576;-73
2023/05/01 01:11:12;;;;;;;11.45;8.07;;;358.60;2329.60;;;;;;5030604;28;20088;-73
2023/05/01 01:13:57;;;;;;;11.13;7.85;;;358.50;2329.60;;;;;;5017067;28;20026;-79
2023/05/01 01:16:57;;;;;;;13.45;7.30;;;358.60;2329.60;;;;;;5016692;28;20077;-73
2023/05/01 01:19:43;;;;;;;14.27;8.23;;;358.60;2329.60;;;;;;5016881;28;20498;-79
2023/05/01 01:22:14;;;;;;;13.55;8.13;;;358.50;2329.60;;;;;;5016893;28;20481;-73
2023/05/01 01:25:05;;;;;;;11.10;6.97;;;358.50;2329.60;;;;;;5016791;28;20113;-79
2023/05/01 01:28:02;;;;;;;19.50;8.00;;;358.50;2329.60;;;;;;5016622;28;20025;-72
2023/05/01 01:30:55;;;;;;;12.60;7.75;;;358.50;2329.60;;;;;;5016759;28;20088;-73
2023/05/01 01:33:35;;;;;;;12.80;7.93;;;358.40;2329.60;;;;;;5016572;28;20025;-78
2023/05/01 01:36:07;;;;;;;12.73;7.82;;;358.50;2329.60;;;;;;5016488;28;20038;-72
2023/05/01 01:39:03;;;;;;;13.55;8.15;;;358.40;2329.60;;;;;;5016487;28;20096;-73
2023/05/01 01:41:32;;;;;;;15.85;8.25;;;358.40;2329.60;;;;;;5016416;28;20030;-73
2023/05/01 01:44:24;;;;;;;14.45;8.95;;;333.70;2329.60;;;;;;5016316;28;20030;-72
2023/05/01 01:46:53;;;;;;;12.27;8.35;;;333.70;2329.60;;;;;;5015960;28;20033;-74
2023/05/01 01:49:23;;;;;;;14.45;7.93;;;333.70;2329.60;;;;;;5016319;28;20018;-73
2023/05/01 01:51:51;;;;;;;14.10;9.15;;;333.70;2329.60;;;;;;5016132;28;20029;-79
2023/05/01 01:54:22;;;;;;;16.17;8.35;;;333.70;2329.60;;;;;;5016048;28;20469;-78
2023/05/01 01:56:49;;;;;;;12.25;7.65;;;333.70;2329.60;;;;;;5016099;28;20484;-73
2023/05/01 01:59:15;;;;;;;12.25;8.57;;;333.60;2329.60;;;;;;5016126;28;20084;-73
2023/05/01 02:01:43;;;;;;;12.95;8.65;;;333.50;2329.60;;;;;;5016279;28;20030;-76
2023/05/01 02:04:10;;;;;;;18.30;7.68;;;333.60;2329.60;;;;;;5016061;28;20046;-74
2023/05/01 02:06:38;;;;;;;17.85;8.50;;;333.60;2329.60;;;;;;5016145;28;20029;-78
2023/05/01 02:09:06;;;;;;;15.32;8.73;;;333.70;2329.60;;;;;;5030775;28;20112;-73
2023/05/01 02:11:34;;;;;;;14.40;8.77;;;333.70;2329.60;;;;;;5017156;28;20366;-73
2023/05/01 02:14:02;;;;;;;10.73;7.50;;;333.50;2329.60;;;;;;5015146;28;20024;-74
2023/05/01 02:16:28;;;;;;;12.43;9.07;;;333.50;2329.60;;;;;;5017679;28;20470;-79
2023/05/01 02:18:55;;;;;;;14.60;8.43;;;333.70;2329.60;;;;;;5014924;28;20033;-77
2023/05/01 02:21:22;;;;;;;13.75;9.07;;;333.60;2329.60;;;;;;5014867;28;20436;-73
2023/05/01 02:23:48;;;;;;;16.00;9.55;;;333.50;2329.60;;;;;;5030394;28;20519;-73
2023/05/01 02:26:17;;;;;;;15.35;9.50;;;333.40;2329.60;;;;;;5023182;28;20037;-73
2023/05/01 02:28:43;;;;;;;17.15;8.68;;;333.40;2329.60;;;;;;5034770;28;20057;-73
2023/05/01 02:31:09;;;;;;;16.98;9.32;;;333.30;2329.60;;;;;;5027138;28;20026;-74
2023/05/01 02:33:35;;;;;;;16.05;9.60;;;333.30;2329.60;;;;;;5014544;28;20029;-77
2023/05/01 02:36:01;;;;;;;13.45;8.88;;;333.30;2329.60;;;;;;5017268;28;20389;-73
2023/05/01 02:38:27;;;;;;;16.52;10.27;;;333.30;2329.60;;;;;;5014631;28;20445;-73
2023/05/01 02:40:57;;;;;;;16.27;8.82;;;333.40;2329.60;;;;;;5022725;28;20482;-73
2023/05/01 02:43:25;;;;;;;20.15;8.75;;;333.40;2329.60;;;;;;5020665;28;20022;-73
2023/05/01 02:45:53;;;;;;;13.75;8.93;;;333.40;2329.60;;;;;;5017258;28;20022;-75
2023/05/01 02:48:26;;;;;;;14.00;8.77;;;333.40;2329.60;;;;;;5017181;28;20022;-73
2023/05/01 02:50:54;;;;;;;13.00;9.15;;;333.30;2329.60;;;;;;5014330;28;20383;-72
2023/05/01 02:53:21;;;;;;;11.45;7.97;;;333.20;2329.60;;;;;;5019358;28;20095;-73
2023/05/01 02:55:47;;;;;;;12.85;7.88;;;333.20;2329.60;;;;;;5021197;28;20468;-79
2023/05/01 02:58:19;;;;;;;13.27;8.75;;;333.10;2329.60;;;;;;5015207;28;20033;-74
2023/05/01 03:00:47;;;;;;;14.07;8.70;;;333.00;2329.60;;;;;;5014052;28;20022;-73
2023/05/01 03:03:12;;;;;;;13.77;8.27;;;333.00;2329.60;;;;;;5016332;28;20017;-73
2023/05/01 03:05:39;;;;;;;15.65;9.32;;;333.00;2329.60;;;;;;5013380;28;20017;-74
2023/05/01 03:08:05;;;;;;;14.52;8.73;;;333.00;2329.60;;;;;;5016185;28;20106;-73
2023/05/01 03:10:31;;;;;;;14.43;9.38;;;333.10;2329.60;;;;;;5016090;28;20107;-73
2023/05/01 03:12:57;;;;;;;11.10;8.45;;;333.20;2329.60;;;;;;5019004;28;20642;-74
2023/05/01 03:15:22;;;;;;;14.27;9.45;;;333.30;2329.60;;;;;;5021299;28;20026;-74
2023/05/01 03:17:48;;;;;;;17.15;9.27;;;333.30;2329.60;;;;;;5016118;28;20029;-73
2023/05/01 03:20:14;;;;;;;15.85;8.52;;;333.00;2329.60;;;;;;5015880;28;20390;-74
2023/05/01 03:22:40;;;;;;;15.05;9.90;;;333.00;2329.60;;;;;;5015563;28;20018;-73
2023/05/01 03:25:07;;;;;;;14.05;9.55;;;332.90;2329.60;;;;;;5017139;28;20493;-74
2023/05/01 03:27:32;;;;;;;17.17;11.02;;;332.90;2329.60;;;;;;5014612;28;20018;-73
2023/05/01 03:29:58;;;;;;;16.30;9.38;;;333.00;2329.60;;;;;;5013242;28;20501;-73
2023/05/01 03:32:24;;;;;;;12.82;9.70;;;333.10;2329.60;;;;;;5022306;28;20083;-73
2023/05/01 03:34:49;;;;;;;14.05;9.88;;;333.10;2329.60;;;;;;5032948;28;20473;-73
2023/05/01 03:37:15;;;;;;;18.33;11.10;;;333.00;2329.60;;;;;;5022173;28;20029;-73
2023/05/01 03:39:41;;;;;;;19.23;9.77;;;332.80;2329.60;;;;;;5018147;28;20581;-73
2023/05/01 03:42:06;;;;;;;18.55;10.35;;;308.00;2304.00;;;;;;5019319;28;20100;-73
2023/05/01 03:44:32;;;;;;;19.13;10.55;;;308.00;2304.00;;;;;;5017401;28;20013;-73
2023/05/01 03:46:58;;;;;;;22.45;9.88;;;307.90;2304.00;;;;;;5019001;28;20048;-72
2023/05/01 03:49:23;;;;;;;14.73;9.55;;;307.80;2304.00;;;;;;5012565;28;20026;-74
2023/05/01 03:51:50;;;;;;;19.67;9.55;;;307.70;2304.00;;;;;;5015284;28;20040;-73
2023/05/01 03:54:15;;;;;;;25.10;10.63;;;307.60;2304.00;;;;;;5017076;28;20116;-73
2023/05/01 03:56:41;;;;;;;17.00;10.32;;;307.60;2304.00;;;;;;5015479;28;20033;-72
2023/05/01 03:59:07;;;;;;;25.20;10.73;;;307.50;2304.00;;;;;;5012526;28;20014;-73
2023/05/01 04:01:32;;;;;;;19.08;10.68;;;307.60;2304.00;;;;;;5012607;28;20113;-74
2023/05/01 04:03:58;;;;;;;19.10;11.23;;;307.70;2304.00;;;;;;5027681;28;20033;-74
2023/05/01 04:06:25;;;;;;;15.25;10.38;;;307.70;2304.00;;;;;;5017852;28;20057;-73
2023/05/01 04:08:50;;;;;;;20.58;10.05;;;307.70;2304.00;;;;;;5016514;28;20013;-73
2023/05/01 04:11:16;;;;;;;21.92;10.60;;;307.80;2304.00;;;;;;5023965;28;20439;-73
2023/05/01 04:13:42;;;;;;;15.70;10.57;;;307.80;2304.00;;;;;;5029412;28;20022;-73
2023/05/01 04:16:07;;;;;;;21.05;10.57;;;307.90;2304.00;;;;;;5014811;28;20032;-74
2023/05/01 04:18:33;;;;;;;16.85;10.27;;;307.90;2304.00;;;;;;5013915;28;20045;-78
2023/05/01 04:20:59;;;;;;;19.17;12.27;;;307.80;2304.00;;;;;;5015812;28;20470;-73
2023/05/01 04:23:24;;;;;;;25.02;13.05;;;307.80;2304.00;;;;;;5023000;28;20093;-73
2023/05/01 04:25:50;;;;;;;18.92;12.35;;;307.90;2304.00;;;;;;5020559;28;20033;-79
2023/05/01 04:28:16;;;;;;;20.00;12.25;;;307.90;2304.00;;;;;;5025734;28;20018;-74
2023/05/01 04:30:41;;;;;;;16.73;10.60;;;308.00;2304.00;;;;;;5017586;28;20033;-74
2023/05/01 04:33:10;;;;;;;17.73;10.30;;;308.00;2304.00;;;;;;5017452;28;20040;-73
2023/05/01 04:35:39;;;;;;;16.17;10.38;;;308.00;2304.00;;;;;;5016656;28;20014;-74
2023/05/01 04:38:06;;;;;;;14.50;9.68;;;307.90;2304.00;;;;;;5021580;28;20512;-74
2023/05/01 04:40:31;;;;;;;20.17;10.20;;;307.90;2304.00;;;;;;5021750;28;20056;-73
2023/05/01 04:42:57;;;;;;;15.68;9.63;;;308.00;2304.00;;;;;;5022437;28;20470;-73
2023/05/01 04:45:23;;;;;;;18.58;10.02;;;307.90;2304.00;;;;;;5019536;28;20033;-73
2023/05/01 04:47:48;;;;;;;16.23;9.45;;;308.00;2304.00;;;;;;5018673;28;20437;-72
2023/05/01 04:50:14;;;;;;;15.98;11.27;;;307.90;2304.00;;;;;;5021584;28;20429;-73
2023/05/01 04:52:40;;;;;;;17.23;11.15;;;307.90;2304.00;;;;;;5018627;28;20433;-73
2023/05/01 04:55:06;;;;;;;20.23;11.95;;;307.90;2304.00;;;;;;5021708;28;20034;-74
2023/05/01 04:57:32;;;;;;;17.90;10.98;;;308.10;2304.00;;;;;;5020886;28;20060;-73
2023/05/01 04:59:58;;;;;;;18.70;10.70;;;308.10;2304.00;;;;;;5018513;28;20468;-74
2023/05/01 05:02:24;;;;;;;19.25;11.95;;;332.80;2329.60;;;;;;5026696;28;20022;-73
2023/05/01 05:04:52;;;;;;;17.75;12.27;;;332.90;2329.60;;;;;;5026731;28;20093;-73
2023/05/01 05:07:18;;;;;;;18.75;10.60;;;332.90;2329.60;;;;;;5021236;28;20017;-78
2023/05/01 05:09:44;;;;;;;38.55;11.15;;;332.90;2329.60;;;;;;5021124;28;20026;-76
2023/05/01 05:12:09;;;;;;;14.85;10.77;;;332.90;2329.60;;;;;;5015414;28;20021;-74
2023/05/01 05:14:35;;;;;;;18.80;9.82;;;333.00;2329.60;;;;;;5015533;28;20018;-73
2023/05/01 05:17:01;;;;;;;14.45;9.93;;;333.00;2329.60;;;;;;5015512;28;20091;-73
2023/05/01 05:19:26;;;;;;;15.13;10.30;;;333.00;2329.60;;;;;;5023168;28;20099;-72
2023/05/01 05:21:52;;;;;;;14.05;9.77;;;333.10;2329.60;;;;;;5029933;28;20497;-73
2023/05/01 05:24:18;;;;;;;17.15;10.35;;;333.20;2329.60;;;;;;5020289;28;20022;-73
2023/05/01 05:26:43;;;;;;;18.75;10.68;;;333.20;2329.60;;;;;;5024237;28;20028;-73
2023/05/01 05:29:09;;;;;;;17.95;9.80;;;333.30;2329.60;;;;;;5020599;28;20470;-72
2023/05/01 05:31:35;;;;;;;16.98;11.27;;;333.40;2329.60;;;;;;5029677;28;20028;-73
2023/05/01 05:34:00;;;;;;;16.17;10.85;;;333.40;2329.60;;;;;;5023666;28;20022;-73
2023/05/01 05:36:27;;;;;;;16.13;11.10;;;333.40;2329.60;;;;;;5025055;28;20068;-73
2023/05/01 05:38:53;;;;;;;17.98;10.57;;;333.40;2329.60;;;;;;5026072;28;20084;-73
2023/05/01 05:41:19;;;;;;;16.33;11.10;;;333.50;2329.60;;;;;;5032167;28;20088;-73
2023/05/01 05:43:44;;;;;;;18.98;12.20;;;333.50;2329.60;;;;;;5026643;28;20014;-75
2023/05/01 05:46:10;;;;;;;17.73;10.75;;;333.60;2329.60;;;;;;5026484;28;20032;-73
2023/05/01 05:48:36;;;;;;;17.13;11.80;;;333.70;2329.60;;;;;;5035165;28;20101;-71
2023/05/01 05:51:02;;;;;;;15.48;9.93;;;333.70;2329.60;;;;;;5031246;28;20477;-73
2023/05/01 05:53:27;;;;;;;17.52;11.70;;;358.40;2329.60;;;;;;5029899;28;20056;-73
2023/05/01 05:55:53;;;;;;;17.48;11.57;;;358.50;2329.60;;;;;;5031823;28;20065;-73
2023/05/01 05:58:19;;;;;;;21.33;12.05;;;358.50;2329.60;;;;;;5027723;28;20021;-72
2023/05/01 06:00:47;;;;;;;16.17;10.63;;;358.60;2329.60;;;;;;5028903;28;20496;-70
2023/05/01 06:03:13;;;;;;;18.15;10.52;;;358.60;2329.60;;;;;;5029163;28;20030;-72
2023/05/01 06:05:39;;;;;;;16.48;10.95;;;358.70;2329.60;;;;;;5030968;28;20025;-72
2023/05/01 06:08:04;;;;;;;17.17;11.15;;;358.80;2329.60;;;;;;5035403;28;20083;-71
2023/05/01 06:10:30;;;;;;;15.68;10.85;;;358.90;2329.60;;;;;;5030154;28;20092;-71
2023/05/01 06:12:56;;;;;;;15.30;11.30;;;359.00;2329.60;;;;;;5025800;28;20057;-70
2023/05/01 06:15:23;;;;;;;18.13;10.70;;;359.00;2329.60;;;;;;5030586;28;20022;-71
2023/05/01 06:17:49;;;;;;;14.73;10.68;;;359.10;2329.60;;;;;;5034348;28;20087;-71
2023/05/01 06:20:15;;;;;;;16.90;11.68;;;359.30;2329.60;;;;;;5030527;28;20104;-70
2023/05/01 06:22:41;;;;;;;16.90;11.43;;;384.00;2329.60;;;;;;5034348;28;20450;-70
2023/05/01 06:25:07;;;;;;;15.90;11.30;;;384.10;2329.60;;;;;;5028581;28;20030;-71
2023/05/01 06:27:33;;;;;;;14.55;10.90;;;384.10;2329.60;;;;;;5028697;28;20022;-71
2023/05/01 06:29:59;;;;;;;16.55;11.50;;;384.30;2329.60;;;;;;5034469;28;20343;-70
2023/05/01 06:32:24;;;;;;;16.17;10.77;;;384.30;2329.60;;;;;;5029687;28;20029;-73
2023/05/01 06:34:50;;;;;;;14.80;10.65;;;384.40;2329.60;;;;;;5026170;28;20505;-72
2023/05/01 06:37:16;;;;;;;12.70;9.57;;;384.40;2329.60;;;;;;5031174;28;20389;-72
2023/05/01 06:39:42;;;;;;;18.50;10.82;;;384.50;2329.60;;;;;;5033948;28;20021;-72
2023/05/01 06:42:10;;;;;;;14.32;11.32;;;384.70;2329.60;;;;;;5024992;28;20098;-73
2023/05/01 06:44:35;;;;;;;17.80;11.32;;;384.90;2329.60;;;;;;5025473;28;20096;-73
2023/05/01 06:47:01;;;;;;;12.90;9.85;;;409.60;2355.20;;;;;;5027289;28;20108;-73
2023/05/01 06:49:27;;;;;;;14.93;10.98;;;;;;;;;;5029795;28;20029;-72
2023/05/01 06:51:53;;;;;;;16.83;10.77;;;409.90;2355.20;;;;;;5025179;28;20044;-73
2023/05/01 06:54:18;;;;;;;29.50;10.45;;;410.00;2355.20;;;;;;5028700;28;20525;-72
2023/05/01 06:56:44;;;;;;;19.55;10.18;;;410.20;2355.20;;;;;;5023246;28;20081;-72
2023/05/01 06:59:10;;;;;;;14.40;10.65;;;410.40;2355.20;;;;;;5024423;28;20026;-73
2023/05/01 07:01:35;;;;;;;21.65;10.35;;;410.50;2355.20;;;;;;5031335;28;20484;-73
2023/05/01 07:04:02;;;;;;;15.50;10.82;;;435.30;2355.20;;;;;;5029264;28;20596;-73
2023/05/01 07:06:28;;;;;;;17.90;10.93;;;435.40;2355.20;;;;;;5033473;28;20018;-72
2023/05/01 07:08:54;;;;;;;19.08;11.57;;;435.50;2355.20;;;;;;5025414;28;20112;-72
2023/05/01 07:11:20;;;;;;;14.85;10.43;;;435.60;2355.20;;;;;;5023656;28;20130;-73
2023/05/01 07:13:45;;;;;;;17.35;9.70;;;435.60;2355.20;;;;;;5024416;28;20089;-71
2023/05/01 07:16:11;;;;;;;13.25;10.10;;;435.80;2355.20;;;;;;5029980;28;20042;-72
2023/05/01 07:18:37;;;;;;;15.00;10.57;;;435.90;2355.20;;;;;;5028146;28;20041;-72
2023/05/01 07:21:03;;;;;;;14.18;9.75;;;435.90;2355.20;;;;;;5026561;28;20398;-72
2023/05/01 07:23:28;;;;;;;20.77;9.93;;;436.10;2355.20;;;;;;5028363;28;20040;-72
2023/05/01 07:25:54;;;;;;;14.73;10.30;;;460.80;2380.80;;;;;;5027345;28;20030;-72
2023/05/01 07:28:21;;;;;;;18.50;9.52;;;460.80;2380.80;;;;;;5021460;28;20484;-72
2023/05/01 07:30:46;;;;;;;13.48;9.82;;;461.00;2380.80;;;;;;5028733;28;20468;-72
2023/05/01 07:33:12;;;;;;;15.15;10.18;;;461.10;2380.80;;;;;;5033106;28;20079;-73
2023/05/01 07:35:38;;;;;;;12.60;9.77;;;461.10;2380.80;;;;;;5028656;28;20029;-74
2023/05/01 07:38:03;;;;;;;15.30;9.63;;;461.20;2380.80;;;;;;5024462;28;20032;-72
2023/05/01 07:40:31;;;;;;;17.55;10.10;;;461.20;2380.80;;;;;;5028874;28;20026;-72
2023/05/01 07:42:57;;;;;;;17.13;9.75;;;461.40;2380.80;;;;;;5026822;28;20055;-72
2023/05/01 07:45:22;;;;;;;12.77;9.75;;;461.40;2380.80;;;;;;5032857;28;20100;-73
2023/05/01 07:47:48;;;;;;;16.00;9.80;;;461.50;2380.80;;;;;;5031839;28;20052;-73
2023/05/01 07:50:15;;;;;;;14.73;9.52;;;461.50;2380.80;;;;;;5026372;28;20030;-72
2023/05/01 07:52:41;;;;;;;14.07;8.90;;;461.70;2380.80;;;;;;5027940;28;20120;-73
2023/05/01 07:55:07;;;;;;;16.83;9.90;;;461.70;2380.80;;;;;;5028219;28;20156;-74
2023/05/01 07:57:34;;;;;;;12.98;9.32;;;461.70;2380.80;;;;;;5028516;28;20025;-75
2023/05/01 08:00:00;;;;;;;15.93;10.07;;;486.40;2380.80;;;;;;5029397;28;20051;-75
2023/05/01 08:02:26;;;;;;;13.88;9.57;;;486.40;2380.80;;;;;;5023964;28;20022;-74
2023/05/01 08:04:52;;;;;;;14.00;8.95;;;486.50;2380.80;;;;;;5026778;28;20037;-74
2023/05/01 08:07:17;;;;;;;16.63;10.43;;;486.50;2380.80;;;;;;5060052;28;20505;-74
2023/05/01 08:09:44;;;;;;;16.00;10.32;;;486.50;2380.80;;;;;;5030250;28;20029;-76
2023/05/01 08:12:10;;;;;;;14.70;10.35;;;486.50;2380.80;;;;;;5024852;28;20024;-74
2023/05/01 08:14:36;;;;;;;15.20;10.45;;;486.50;2380.80;;;;;;5031235;28;20021;-77
2023/05/01 08:17:02;;;;;;;14.02;9.98;;;486.70;2380.80;;;;;;5030895;28;20042;-74
2023/05/01 08:19:27;;;;;;;1145.78;702.60;;;486.80;2380.80;;;;;;5026263;28;20076;-74
2023/05/01 08:21:54;;;;;;;699.75;403.15;;;486.80;2380.80;;;;;;5027429;28;20124;-77
2023/05/01 08:24:20;;;;;;;127.38;67.97;;;486.80;2380.80;;;;;;5023432;28;20080;-74
2023/05/01 08:26:45;;;;;;;23.10;16.00;;;486.90;2380.80;;;;;;5026340;28;20025;-73
2023/05/01 08:29:11;;;;;;;1096.53;656.90;;;486.90;2380.80;;;;;;5025163;28;20072;-74
2023/05/01 08:31:38;;;;;;;1882.72;899.22;;;486.80;2380.80;;;;;;5025699;28;20488;-75
2023/05/01 08:34:04;;;;;;;124.13;66.18;;;486.90;2380.80;;;;;;5025391;28;20052;-72
2023/05/01 08:36:31;;;;;;;23.65;15.82;;;487.00;2380.80;;;;;;5029135;28;20083;-71
2023/05/01 08:38:57;;;;;;;33.92;19.33;;;487.00;2380.80;;;;;;5027630;28;20017;-72
2023/05/01 08:41:26;;;;;;;11.75;7.80;;;487.10;2380.80;;;;;;5027126;28;20037;-73
2023/05/01 08:43:52;;;;;;;13.85;6.97;;;487.00;2380.80;;;;;;5028231;28;20029;-71
2023/05/01 08:46:41;;;;;;;11.15;7.72;;;487.10;2380.80;;;;;;5027080;28;20029;-72
2023/05/01 08:49:10;;;;;;;9.68;7.50;;;487.20;2380.80;;;;;;5013085;28;20532;-72
2023/05/01 08:51:37;;;;;;;16.52;11.15;;;487.20;2380.80;;;;;;5017945;28;20033;-71
2023/05/01 08:54:07;;;;;;;33.05;22.20;;;487.20;2380.80;;;;;;5013385;28;20480;-78
2023/05/01 08:56:35;;;;;;;54.55;37.13;;;487.20;2380.80;;;;;;5023655;28;20060;-73
2023/05/01 08:59:03;;;;;;;91.22;81.40;;;487.20;2380.80;;;;;;5018353;28;20064;-74
2023/05/01 09:01:31;;;;;;;15.23;10.05;;;512.00;2380.80;;;;;;5011885;28;20095;-73
2023/05/01 09:04:01;;;;;;;498.98;310.48;;;512.10;2380.80;;;;;;5015664;28;20124;-76
2023/05/01 09:06:28;;;;;;;65.75;40.70;;;512.30;2380.80;;;;;;5014761;28;20041;-76
2023/05/01 09:08:54;;;;;;;203.45;122.45;;;512.40;2380.80;;;;;;5014759;28;20022;-72
2023/05/01 09:11:21;;;;;;;19.02;12.40;;;512.60;2380.80;;;;;;5021294;28;20040;-73
2023/05/01 09:13:47;;;;;;;15.80;10.32;;;512.60;2380.80;;;;;;5013909;28;20132;-72
2023/05/01 09:16:13;;;;;;;28.27;20.77;;;512.80;2380.80;;;;;;5020495;28;20113;-73
2023/05/01 09:18:42;;;;;;;14.88;11.15;;;512.90;2380.80;;;;;;5026767;28;20079;-72
2023/05/01 09:21:08;;;;;;;12.50;9.50;;;537.60;2406.40;;;;;;5015996;28;20029;-78
2023/05/01 09:23:36;;;;;;;16.35;9.38;;;537.70;2406.40;;;;;;4994702;28;20038;-77
2023/05/01 09:26:06;;;;;;;25.10;16.00;;;537.70;2406.40;;;;;;5005841;28;20490;-75
2023/05/01 09:28:46;;;;;;;58.97;38.60;;;537.80;2252.80;;;;;;5035217;28;20022;-76
2023/05/01 09:31:31;;;;;;;547.53;368.75;;;538.00;2355.20;;;;;;5036417;28;20026;-74
2023/05/01 09:34:02;;;;;;;400.85;250.95;;;538.00;2227.20;;;;;;5035960;28;20022;-72
2023/05/01 09:36:30;;;;;;;131.77;76.78;;;538.00;2150.40;;;;;;5035925;28;20060;-73
2023/05/01 09:38:57;;;;;;;395.05;284.77;;;538.00;2201.60;;;;;;5035868;28;20393;-77
2023/05/01 09:41:23;;;;;;;829.83;579.17;;;538.20;2150.40;;;;;;5035521;28;20052;-76
2023/05/01 09:43:53;;;;;;;781.03;616.80;;;538.40;2073.60;;;;;;5035840;28;20512;-73
2023/05/01 09:46:22;;;;;;;40.55;30.67;;;538.50;2022.40;;;;;;5035691;28;20017;-78
2023/05/01 09:48:55;;;;;;;110.95;61.13;;;538.50;2048.00;;;;;;5035705;28;20020;-77
2023/05/01 09:51:27;;;;;;;28.73;17.77;;;563.40;1920.00;;;;;;5035417;28;20029;-75
2023/05/01 09:53:58;;;;;;;254.55;138.23;;;563.40;2022.40;;;;;;5035520;28;20037;-78
2023/05/01 09:56:28;;;;;;;436.60;263.70;;;563.60;1920.00;;;;;;5026587;28;20037;-75
2023/05/01 09:58:56;;;;;;;257.00;138.85;;;563.90;1894.40;;;;;;5030259;28;20053;-73
2023/05/01 10:01:43;;;;;;;14.30;11.10;;;564.00;1868.80;;;;;;5019907;28;20486;-75
2023/05/01 10:04:09;;;;;;;279.48;158.45;;;563.90;1792.00;;;;;;5027576;28;20018;-76
2023/05/01 10:06:35;;;;;;;76.05;45.80;;;564.10;1740.80;;;;;;5035392;28;20029;-75
2023/05/01 10:09:02;;;;;;;212.30;126.78;;;588.90;1740.80;;;;;;5035442;28;20084;-77
2023/05/01 10:11:28;;;;;;;28.23;16.20;;;589.10;1715.20;;;;;;5035330;28;20017;-79
2023/05/01 10:14:08;;;;;;;137.77;84.15;;;589.20;1715.20;;;;;;5035608;28;20428;-76
2023/05/01 10:16:36;;;;;;;16.23;9.07;;;589.40;1664.00;;;;;;5014972;28;20033;-74
2023/05/01 10:19:02;;;;;;;35.45;20.25;;;589.30;1664.00;;;;;;5018604;28;20465;-75
2023/05/01 10:21:30;;;;;;;34.97;21.27;;;589.60;1664.00;;;;;;5017869;28;20026;-74
2023/05/01 10:23:56;;;;;;;25.88;16.00;;;589.70;1664.00;;;;;;5021981;28;20025;-77
2023/05/01 10:26:25;;;;;;;82.45;50.83;;;589.70;1638.40;;;;;;5035219;28;20117;-74
2023/05/01 10:28:51;;;;;;;171.23;116.93;;;614.60;1638.40;;;;;;5035148;28;20022;-74
2023/05/01 10:31:17;;;;;;;357.77;230.52;;;614.60;1587.20;;;;;;5034512;28;20030;-72
2023/05/01 10:33:45;;;;;;;74.53;52.17;;;614.70;1561.60;;;;;;5034047;28;20025;-72
2023/05/01 10:36:18;;;;;;;8.52;6.72;;;614.80;1536.00;;;;;;5034622;28;20040;-72
2023/05/01 10:38:47;;;;;;;10.45;6.03;;;614.70;1587.20;;;;;;5034724;28;20416;-73
2023/05/01 10:41:16;;;;;;;17.00;12.10;;;614.80;1612.80;;;;;;5033744;28;20060;-71
2023/05/01 10:43:42;;;;;;;137.10;92.07;;;615.10;1587.20;;;;;;5033700;28;20034;-72
2023/05/01 10:46:20;;;;;;;257.15;171.35;;;640.00;1484.80;;;;;;5033895;28;20112;-77
2023/05/01 10:48:46;;;;;;;104.57;72.93;;;640.20;1484.80;;;;;;5027364;28;20033;-71
2023/05/01 10:51:22;;;;;;;30.95;20.77;;;640.10;1433.60;;;;;;5027282;28;20381;-72
2023/05/01 10:54:09;;;;;;;10.30;5.93;;;640.10;1433.60;;;;;;5014556;28;20086;-73
2023/05/01 10:56:35;;;;;;;7.10;5.00;;;615.20;1510.40;;;;;;5024295;28;20497;-79
2023/05/01 10:59:05;;;;;;;8.80;6.32;;;615.10;1459.20;;;;;;5034518;28;20159;-73
2023/05/01 11:01:44;;;;;;;7.75;5.00;;;615.10;1484.80;;;;;;5034302;28;20025;-77
2023/05/01 11:04:20;;;;;;;11.32;6.60;;;640.00;1510.40;;;;;;5034287;28;20021;-73
2023/05/01 11:07:01;;;;;;;10.82;8.20;;;640.10;1459.20;;;;;;5033834;28;20026;-72
2023/05/01 11:09:38;;;;;;;10.23;6.53;;;640.20;1408.00;;;;;;5033457;28;20096;-80
2023/05/01 11:12:05;;;;;;;8.90;5.05;;;;;;;;;;5031860;28;20026;-70
2023/05/01 11:14:52;;;;;;;4.88;3.70;;;640.60;1408.00;;;;;;5034202;28;20028;-71
2023/05/01 11:17:42;;;;;;;6.05;4.10;;;640.60;1331.20;;;;;;5033728;28;20083;-72
2023/05/01 11:20:32;;;;;;;6.80;4.65;;;640.40;1356.80;;;;;;5033160;28;20025;-76
2023/05/01 11:22:58;;;;;;;5.78;4.18;;;640.40;1331.20;;;;;;5033408;28;20030;-74
2023/05/01 11:25:27;;;;;;;5.20;4.00;;;640.40;1382.40;;;;;;5034042;28;20044;-79
2023/05/01 11:28:01;;;;;;;6.55;4.38;;;640.10;1408.00;;;;;;5033926;28;20394;-73
2023/05/01 11:30:40;;;;;;;7.28;4.20;;;640.20;1408.00;;;;;;5021626;28;20029;-72
2023/05/01 11:33:06;;;;;;;9.68;5.55;;;640.50;1382.40;;;;;;5033306;28;20030;-74
2023/05/01 11:35:32;;;;;;;8.20;5.13;;;640.20;1382.40;;;;;;5033816;28;20028;-74
2023/05/01 11:37:58;;;;;;;5.53;4.38;;;640.40;1356.80;;;;;;5033535;28;20025;-75
2023/05/01 11:40:33;;;;;;;5.63;3.72;;;640.40;1356.80;;;;;;5033302;28;20021;-73
2023/05/01 11:43:01;;;;;;;8.38;4.07;;;640.70;1331.20;;;;;;5033730;28;20022;-75
2023/05/01 11:45:27;;;;;;;7.65;5.40;;;640.60;1331.20;;;;;;5032954;28;20033;-77
2023/05/01 11:47:53;;;;;;;7.50;4.55;;;640.60;1382.40;;;;;;5033353;28;20032;-78
2023/05/01 11:50:20;;;;;;;5.90;3.95;;;640.50;1382.40;;;;;;5033445;28;20029;-78
2023/05/01 11:52:53;;;;;;;5.75;3.70;;;640.70;1382.40;;;;;;5032807;28;20370;-78
2023/05/01 11:55:32;;;;;;;4.15;3.10;;;640.80;1408.00;;;;;;5033335;28;20112;-74
2023/05/01 11:57:58;;;;;;;8.27;4.63;;;640.50;1331.20;;;;;;5033520;28;20055;-74
2023/05/01 12:00:29;;;;;;;7.72;4.32;;;640.70;1280.00;;;;;;5028730;28;20022;-76
2023/05/01 12:02:59;;;;;;;10.20;5.60;;;665.70;1305.60;;;;;;5029741;28;20036;-75
2023/05/01 12:05:27;;;;;;;9.60;6.35;;;665.80;1331.20;;;;;;5030487;28;20049;-74
2023/05/01 12:08:10;;;;;;;7.30;3.65;;;665.80;1305.60;;;;;;5025220;28;20095;-76